Single Pilot Decision Making – Storm Gareth

In-depth video of single pilot decision making during an extremely wild week for winds in the UK, thus resulting in the cancellation of the flight to Bournemouth I discuss with reference the Safety Sense Leaflet’s provided by the CAA and my personal experiences that allowed me to proactively identify safety-related hazards and mitigate the associated risks.

CAA website – List of Safety Sense Leaflets

This video has purpose to share my experiences without affecting in any way the status of officially adopted legislative and regulatory provisions, including Acceptable Means of Compliance or Guidance Materials. Please seek the advice of your instructor(s) or examiner(s). As always, fly safely.

Weather –

TAF EGHH 110624Z 1106/1115 29012KT 9999 FEW035 TEMPO 1106/1109 29015G25KT=

TAF EGHH 110805Z 1109/1118 29012KT 9999 FEW030 BECMG 1116/1118 23010KT=

TAF AMD EGHH 110929Z 1109/1118 29020G35KT 9999 SCT030 BECMG 1110/1112 29014KT BECMG 1116/1118 23013KT=

METAR EGHH 110820Z 30019G29KT CAVOK 06/00 Q1025=

METAR EGHH 110850Z 30018G28KT 9999 FEW030 07/01 Q1026=

METAR EGHH 110920Z 30021G35KT 9999 FEW018 SCT030 08/00 Q1026=

Are you subscribed to The Flying VLOG Youtube channel? 

(To receive a notification about each new video, hit the little bell icon)




Share your thoughts